Time;durP1;ratioP1;P1;durP2;ratioP2;P2;SDS_P1;SDS_P2;PMS_P1;PMS_P2;Temp;Humidity;BMP_temperature;BMP_pressure;BME280_temperature;BME280_humidity;BME280_pressure;Samples;Min_cycle;Max_cycle;Signal;HPM_P1;HPM_P2
2023/01/23 00:00:38;;;;;;;38.83;23.80;;;1.90;99.90;;;;;;5078015;28;20032;-67
2023/01/23 00:03:03;;;;;;;41.97;23.63;;;1.90;99.90;;;;;;5075882;28;20395;-67
2023/01/23 00:05:29;;;;;;;44.60;24.95;;;1.90;99.90;;;;;;5075450;28;20111;-67
2023/01/23 00:07:55;;;;;;;44.42;25.83;;;1.90;99.90;;;;;;5076033;28;20029;-67
2023/01/23 00:10:20;;;;;;;42.90;25.90;;;1.90;99.90;;;;;;5075337;28;20032;-67
2023/01/23 00:12:49;;;;;;;43.92;26.38;;;1.90;99.90;;;;;;5075940;28;20020;-67
2023/01/23 00:15:15;;;;;;;46.28;25.88;;;1.90;99.90;;;;;;5074308;28;20366;-67
2023/01/23 00:17:41;;;;;;;43.33;25.17;;;1.90;99.90;;;;;;5075596;28;20051;-68
2023/01/23 00:20:09;;;;;;;42.78;24.73;;;1.90;99.90;;;;;;5075221;28;20027;-67
2023/01/23 00:22:34;;;;;;;44.38;25.90;;;1.90;99.90;;;;;;5075097;28;20035;-68
2023/01/23 00:25:00;;;;;;;43.55;24.92;;;1.90;99.90;;;;;;5075175;28;20411;-68
2023/01/23 00:27:25;;;;;;;42.47;24.85;;;1.90;99.90;;;;;;5074690;28;20024;-67
2023/01/23 00:29:52;;;;;;;41.35;23.52;;;1.90;99.90;;;;;;5075555;28;20029;-67
2023/01/23 00:32:18;;;;;;;40.30;24.23;;;1.90;99.90;;;;;;5075068;28;20029;-68
2023/01/23 00:34:45;;;;;;;38.75;23.88;;;1.90;99.90;;;;;;5075358;28;20064;-67
2023/01/23 00:37:11;;;;;;;40.55;24.30;;;1.90;99.90;;;;;;5075258;28;20107;-67
2023/01/23 00:39:36;;;;;;;43.30;25.50;;;1.90;99.90;;;;;;5074717;28;20798;-67
2023/01/23 00:42:02;;;;;;;43.55;25.35;;;1.90;99.90;;;;;;5075144;28;20111;-67
2023/01/23 00:44:29;;;;;;;41.88;24.13;;;1.90;99.90;;;;;;5074526;28;20029;-68
2023/01/23 00:46:55;;;;;;;41.05;24.17;;;1.90;99.90;;;;;;5073842;28;20020;-67
2023/01/23 00:49:21;;;;;;;42.70;23.90;;;2.00;99.90;;;;;;5074688;28;20029;-68
2023/01/23 00:51:47;;;;;;;40.90;23.35;;;1.90;99.90;;;;;;5074901;28;20082;-67
2023/01/23 00:54:13;;;;;;;42.20;24.77;;;2.00;99.90;;;;;;5074857;28;20041;-67
2023/01/23 00:56:39;;;;;;;43.53;24.80;;;1.90;99.90;;;;;;5074480;28;20117;-67
2023/01/23 00:59:05;;;;;;;40.55;23.98;;;1.90;99.90;;;;;;5073894;28;20504;-68
2023/01/23 01:01:31;;;;;;;41.63;23.60;;;1.90;99.90;;;;;;5074374;28;20024;-67
2023/01/23 01:03:58;;;;;;;42.85;23.70;;;2.00;99.90;;;;;;5074269;28;20162;-67
2023/01/23 01:06:23;;;;;;;44.38;25.20;;;2.00;99.90;;;;;;5073984;28;20068;-67
2023/01/23 01:08:49;;;;;;;47.58;25.60;;;2.00;99.90;;;;;;5075022;28;20055;-67
2023/01/23 01:11:16;;;;;;;43.42;24.88;;;2.00;99.90;;;;;;5074649;28;20040;-67
2023/01/23 01:13:42;;;;;;;46.65;25.00;;;2.00;99.90;;;;;;5074275;28;20036;-67
2023/01/23 01:16:08;;;;;;;45.03;24.92;;;2.10;99.90;;;;;;5074529;28;20480;-67
2023/01/23 01:18:34;;;;;;;45.20;25.38;;;2.00;99.90;;;;;;5074207;28;20056;-67
2023/01/23 01:21:00;;;;;;;45.47;26.08;;;2.00;99.90;;;;;;5074384;28;20426;-67
2023/01/23 01:23:26;;;;;;;51.35;26.63;;;2.00;99.90;;;;;;5073878;28;20116;-69
2023/01/23 01:25:52;;;;;;;46.65;25.73;;;2.00;99.90;;;;;;5074336;28;20112;-67
2023/01/23 01:28:18;;;;;;;49.85;25.83;;;1.90;99.90;;;;;;5074448;28;20025;-67
2023/01/23 01:30:43;;;;;;;54.55;27.15;;;2.00;99.90;;;;;;5073679;28;20462;-67
2023/01/23 01:33:10;;;;;;;51.15;27.45;;;2.00;99.90;;;;;;5074507;28;20123;-67
2023/01/23 01:35:39;;;;;;;52.67;27.80;;;2.00;99.90;;;;;;5073766;28;20024;-67
2023/01/23 01:38:04;;;;;;;54.33;28.02;;;2.00;99.90;;;;;;5074064;28;20028;-68
2023/01/23 01:40:34;;;;;;;56.75;26.90;;;2.00;99.90;;;;;;5073463;28;20457;-67
2023/01/23 01:43:05;;;;;;;47.93;26.90;;;2.00;99.90;;;;;;5073762;28;20028;-67
2023/01/23 01:46:07;;;;;;;54.15;29.20;;;1.90;99.90;;;;;;5073641;28;20032;-69
2023/01/23 01:49:05;;;;;;;51.53;28.48;;;1.90;99.90;;;;;;5073507;28;20040;-69
2023/01/23 01:51:37;;;;;;;53.17;28.45;;;2.00;99.90;;;;;;5073286;28;20116;-67
2023/01/23 01:54:18;;;;;;;65.28;33.53;;;2.00;99.90;;;;;;5076221;28;20032;-67
2023/01/23 01:57:19;;;;;;;68.40;36.10;;;1.90;99.90;;;;;;5073293;28;20021;-68
2023/01/23 01:59:47;;;;;;;75.63;37.40;;;2.00;99.90;;;;;;5073019;28;20047;-67
2023/01/23 02:02:46;;;;;;;92.47;45.92;;;2.00;99.90;;;;;;5073494;28;20048;-69
2023/01/23 02:05:18;;;;;;;92.22;45.65;;;2.00;99.90;;;;;;5072892;28;20094;-68
2023/01/23 02:07:56;;;;;;;87.32;44.17;;;2.00;99.90;;;;;;5071908;28;20028;-68
2023/01/23 02:10:22;;;;;;;73.32;37.95;;;2.00;99.90;;;;;;5072995;28;20538;-68
2023/01/23 02:12:50;;;;;;;68.75;35.20;;;2.00;99.90;;;;;;5072730;28;20511;-68
2023/01/23 02:15:18;;;;;;;69.43;35.60;;;2.00;99.90;;;;;;5073096;28;20033;-68
2023/01/23 02:17:45;;;;;;;65.57;31.80;;;1.90;99.90;;;;;;5073014;28;20094;-68
2023/01/23 02:20:19;;;;;;;64.97;31.80;;;1.90;99.90;;;;;;5072905;28;20025;-68
2023/01/23 02:22:51;;;;;;;59.70;32.00;;;2.00;99.90;;;;;;5076127;28;20040;-68
2023/01/23 02:25:16;;;;;;;59.25;30.15;;;2.00;99.90;;;;;;5077957;28;20376;-68
2023/01/23 02:27:42;;;;;;;55.28;29.15;;;2.00;99.90;;;;;;5073719;28;20028;-67
2023/01/23 02:30:08;;;;;;;55.42;28.63;;;2.00;99.90;;;;;;5072832;28;20048;-67
2023/01/23 02:32:34;;;;;;;57.40;28.77;;;2.00;99.90;;;;;;5072599;28;20032;-68
2023/01/23 02:35:11;;;;;;;57.40;29.10;;;2.00;99.90;;;;;;5073302;28;20540;-68
2023/01/23 02:37:41;;;;;;;62.08;30.08;;;2.00;99.90;;;;;;5072785;28;20373;-69
2023/01/23 02:40:08;;;;;;;60.08;31.10;;;1.90;99.90;;;;;;5072577;28;20048;-68
2023/01/23 02:42:33;;;;;;;60.42;29.60;;;1.90;99.90;;;;;;5071811;28;20037;-69
2023/01/23 02:44:59;;;;;;;63.45;30.98;;;2.00;99.90;;;;;;5073183;28;20115;-68
2023/01/23 02:47:25;;;;;;;60.50;29.95;;;2.00;99.90;;;;;;5072819;28;20025;-67
2023/01/23 02:49:51;;;;;;;60.20;29.67;;;2.00;99.90;;;;;;5071105;28;20028;-67
2023/01/23 02:52:16;;;;;;;60.08;29.90;;;2.00;99.90;;;;;;5072784;28;20030;-67
2023/01/23 02:54:42;;;;;;;61.35;29.90;;;2.00;99.90;;;;;;5072026;28;20027;-67
2023/01/23 02:57:08;;;;;;;60.55;31.65;;;2.00;99.90;;;;;;5072786;28;20453;-67
2023/01/23 03:02:18;;;;;;;59.25;30.95;;;2.10;99.90;;;;;;5073718;28;20031;-68
2023/01/23 03:04:43;;;;;;;63.80;30.20;;;2.10;99.90;;;;;;5072162;28;20435;-68
2023/01/23 03:07:09;;;;;;;59.83;29.35;;;2.10;99.90;;;;;;5072957;28;20443;-67
2023/01/23 03:09:35;;;;;;;65.07;31.58;;;2.10;99.90;;;;;;5072195;28;20491;-67
2023/01/23 03:12:01;;;;;;;60.15;30.77;;;2.10;99.90;;;;;;5072571;28;20115;-68
2023/01/23 03:14:28;;;;;;;59.20;30.30;;;2.10;99.90;;;;;;5072578;28;20025;-67
2023/01/23 03:16:54;;;;;;;61.50;30.83;;;2.10;99.90;;;;;;5072478;28;20064;-67
2023/01/23 03:19:22;;;;;;;61.22;30.20;;;2.20;99.90;;;;;;5072509;28;20070;-67
2023/01/23 03:21:48;;;;;;;57.00;30.90;;;2.20;99.90;;;;;;5072193;28;20377;-67
2023/01/23 03:24:14;;;;;;;57.40;29.77;;;2.20;99.90;;;;;;5076247;28;20029;-67
2023/01/23 03:26:45;;;;;;;58.67;30.38;;;2.20;99.90;;;;;;5075975;28;20043;-67
2023/01/23 03:32:02;;;;;;;;;;;2.20;99.90;;;;;;5077079;28;20040;-67
2023/01/23 03:34:28;;;;;;;61.20;30.73;;;2.30;99.90;;;;;;5076531;28;19905;-68
2023/01/23 03:36:54;;;;;;;56.53;28.38;;;2.30;99.90;;;;;;5076011;28;20040;-68
2023/01/23 03:42:04;;;;;;;61.40;31.88;;;2.30;99.90;;;;;;5076225;28;20175;-68
2023/01/23 03:44:29;;;;;;;60.38;30.70;;;2.30;99.90;;;;;;5074946;28;20119;-68
2023/01/23 03:46:55;;;;;;;57.97;31.05;;;2.30;99.90;;;;;;5075885;28;20021;-67
2023/01/23 03:49:21;;;;;;;55.33;28.90;;;2.30;99.90;;;;;;5075995;28;20534;-67
2023/01/23 03:51:46;;;;;;;58.67;30.35;;;2.30;99.90;;;;;;5075497;28;20032;-68
2023/01/23 03:54:13;;;;;;;56.05;30.05;;;2.20;99.90;;;;;;5076021;28;20039;-68
2023/01/23 03:56:40;;;;;;;57.42;30.73;;;2.20;99.90;;;;;;5078183;28;20058;-68
2023/01/23 03:59:05;;;;;;;62.35;30.35;;;2.20;99.90;;;;;;5076066;28;20033;-68
2023/01/23 04:01:31;;;;;;;55.83;28.98;;;2.20;99.90;;;;;;5076247;28;20032;-68
2023/01/23 04:03:57;;;;;;;55.05;29.63;;;2.20;99.90;;;;;;5075517;28;20028;-67
2023/01/23 04:06:23;;;;;;;58.97;30.80;;;2.20;99.90;;;;;;5075843;28;20182;-67
2023/01/23 04:08:48;;;;;;;59.10;30.38;;;2.20;99.90;;;;;;5074115;28;20029;-68
2023/01/23 04:11:14;;;;;;;58.47;30.52;;;2.30;99.90;;;;;;5075460;28;20104;-68
2023/01/23 04:13:40;;;;;;;60.05;32.33;;;2.20;99.90;;;;;;5075331;28;20117;-68
2023/01/23 04:16:06;;;;;;;62.67;31.45;;;2.20;99.90;;;;;;5075653;28;20054;-68
2023/01/23 04:18:32;;;;;;;57.55;31.27;;;2.20;99.90;;;;;;5075411;28;20057;-68
2023/01/23 04:20:58;;;;;;;61.20;31.88;;;2.20;99.90;;;;;;5075483;28;20115;-68
2023/01/23 04:23:25;;;;;;;61.83;30.98;;;2.20;99.90;;;;;;5075351;28;20111;-68
2023/01/23 04:25:51;;;;;;;56.63;29.80;;;2.20;99.90;;;;;;5074838;28;20039;-68
2023/01/23 04:28:17;;;;;;;57.42;31.20;;;2.20;99.90;;;;;;5075449;28;20032;-68
2023/01/23 04:30:42;;;;;;;60.47;30.73;;;2.20;99.90;;;;;;5074936;28;20543;-68
2023/01/23 04:33:08;;;;;;;61.95;31.60;;;2.20;99.90;;;;;;5075336;28;20036;-68
2023/01/23 04:35:34;;;;;;;63.58;32.30;;;2.20;99.90;;;;;;5075303;28;20532;-67
2023/01/23 04:38:00;;;;;;;58.35;29.63;;;2.20;99.90;;;;;;5075518;28;20033;-67
2023/01/23 04:40:26;;;;;;;59.55;31.17;;;2.20;99.90;;;;;;5075152;28;20451;-68
2023/01/23 04:42:52;;;;;;;60.47;30.50;;;2.10;99.90;;;;;;5074385;28;20028;-68
2023/01/23 04:45:17;;;;;;;58.50;30.73;;;2.20;99.90;;;;;;5075180;28;20036;-68
2023/01/23 04:47:43;;;;;;;61.92;31.95;;;2.20;99.90;;;;;;5074755;28;20031;-67
2023/01/23 04:50:09;;;;;;;58.58;30.13;;;2.20;99.90;;;;;;5074609;28;20453;-68
2023/01/23 04:52:35;;;;;;;54.70;29.38;;;2.20;99.90;;;;;;5056821;28;20043;-68
2023/01/23 04:55:01;;;;;;;60.55;30.20;;;2.20;99.90;;;;;;5075025;28;20024;-68
2023/01/23 04:57:27;;;;;;;56.97;27.85;;;2.20;99.90;;;;;;5074633;28;20077;-68
2023/01/23 04:59:52;;;;;;;60.25;29.42;;;2.20;99.90;;;;;;5074510;28;20029;-68
2023/01/23 05:02:18;;;;;;;58.17;29.42;;;2.20;99.90;;;;;;5074757;28;20107;-68
2023/01/23 05:04:44;;;;;;;60.50;31.20;;;2.20;99.90;;;;;;5073100;28;20599;-69
2023/01/23 05:07:11;;;;;;;59.15;29.55;;;2.20;99.90;;;;;;5074740;28;20100;-66
2023/01/23 05:09:39;;;;;;;63.70;30.58;;;2.10;99.90;;;;;;5074440;28;20036;-70
2023/01/23 05:12:06;;;;;;;51.95;27.48;;;2.20;99.90;;;;;;5074665;28;20025;-68
2023/01/23 05:14:31;;;;;;;54.70;27.92;;;2.10;99.90;;;;;;5074568;28;20346;-67
2023/01/23 05:16:57;;;;;;;53.75;26.80;;;2.10;99.90;;;;;;5074153;28;20457;-66
2023/01/23 05:19:23;;;;;;;58.10;26.35;;;2.10;99.90;;;;;;5074519;28;20028;-68
2023/01/23 05:21:49;;;;;;;50.90;27.45;;;2.10;99.90;;;;;;5074108;28;20074;-67
2023/01/23 05:24:14;;;;;;;57.78;29.38;;;2.00;99.90;;;;;;5074317;28;20024;-67
2023/01/23 05:26:41;;;;;;;56.20;28.88;;;2.00;99.90;;;;;;5073903;28;20036;-68
2023/01/23 05:29:07;;;;;;;57.60;29.33;;;2.00;99.90;;;;;;5074376;28;20035;-67
2023/01/23 05:31:32;;;;;;;54.17;27.17;;;2.00;99.90;;;;;;5074129;28;20485;-67
2023/01/23 05:33:58;;;;;;;53.08;27.30;;;2.00;99.90;;;;;;5073732;28;20032;-68
2023/01/23 05:36:24;;;;;;;54.97;27.95;;;2.00;99.90;;;;;;5073906;28;20389;-67
2023/01/23 05:38:49;;;;;;;51.50;27.85;;;2.00;99.90;;;;;;5073401;28;20097;-68
2023/01/23 05:41:16;;;;;;;47.28;26.05;;;2.00;99.90;;;;;;5074109;28;20426;-67
2023/01/23 05:43:43;;;;;;;51.25;25.85;;;1.90;99.90;;;;;;5073245;28;20123;-68
2023/01/23 05:46:08;;;;;;;53.05;26.15;;;1.90;99.90;;;;;;5073553;28;20037;-68
2023/01/23 05:48:34;;;;;;;48.08;26.25;;;1.80;99.90;;;;;;5079168;28;20017;-68
2023/01/23 05:51:02;;;;;;;48.50;26.40;;;1.80;99.90;;;;;;5075426;28;20036;-68
2023/01/23 05:53:28;;;;;;;54.90;25.00;;;1.90;99.90;;;;;;5073822;28;20052;-67
2023/01/23 05:55:53;;;;;;;51.67;26.77;;;1.80;99.90;;;;;;5073388;28;20060;-67
2023/01/23 05:58:19;;;;;;;51.20;26.25;;;1.80;99.90;;;;;;5073860;28;20048;-68
2023/01/23 06:00:45;;;;;;;51.88;25.92;;;1.90;99.90;;;;;;5073268;28;20069;-67
2023/01/23 06:03:10;;;;;;;43.67;24.02;;;1.90;99.90;;;;;;5073633;28;20081;-67
2023/01/23 06:05:36;;;;;;;48.60;25.65;;;1.90;99.90;;;;;;5072349;28;20035;-67
2023/01/23 06:08:02;;;;;;;45.08;24.70;;;1.90;99.90;;;;;;5073233;28;20029;-68
2023/01/23 06:10:28;;;;;;;46.85;24.90;;;1.90;99.90;;;;;;5073394;28;20031;-68
2023/01/23 06:12:53;;;;;;;47.05;24.45;;;1.90;99.90;;;;;;5073023;28;20029;-68
2023/01/23 06:15:19;;;;;;;44.88;24.00;;;1.80;99.90;;;;;;5073729;28;20062;-67
2023/01/23 06:17:44;;;;;;;42.50;23.90;;;1.80;99.90;;;;;;5073067;28;20376;-68
2023/01/23 06:20:11;;;;;;;44.53;24.23;;;1.90;99.90;;;;;;5073259;28;20024;-68
2023/01/23 06:22:37;;;;;;;45.75;24.33;;;1.80;99.90;;;;;;5073354;28;20039;-67
2023/01/23 06:25:03;;;;;;;42.63;23.55;;;1.90;99.90;;;;;;5072874;28;20389;-67
2023/01/23 06:27:29;;;;;;;44.08;25.10;;;1.90;99.90;;;;;;5073295;28;20028;-67
2023/01/23 06:29:54;;;;;;;39.50;22.55;;;1.90;99.90;;;;;;5072799;28;20025;-67
2023/01/23 06:32:22;;;;;;;41.00;22.75;;;1.90;99.90;;;;;;5072986;28;20029;-67
2023/01/23 06:34:48;;;;;;;43.35;22.80;;;1.90;99.90;;;;;;5072642;28;20425;-67
2023/01/23 06:37:14;;;;;;;42.95;23.20;;;1.90;99.90;;;;;;5073137;28;20163;-66
2023/01/23 06:39:40;;;;;;;43.17;21.90;;;1.90;99.90;;;;;;5072814;28;20044;-67
2023/01/23 06:42:08;;;;;;;38.17;21.00;;;1.90;99.90;;;;;;5072688;28;20047;-68
2023/01/23 06:44:36;;;;;;;38.33;21.45;;;1.90;99.90;;;;;;5072868;28;20060;-67
2023/01/23 06:47:02;;;;;;;39.72;20.17;;;1.90;99.90;;;;;;5072098;28;20465;-68
2023/01/23 06:49:27;;;;;;;36.35;20.38;;;1.90;99.90;;;;;;5072623;28;20039;-68
2023/01/23 06:51:53;;;;;;;40.22;21.77;;;1.90;99.90;;;;;;5071975;28;20029;-68
2023/01/23 06:54:19;;;;;;;43.10;21.90;;;1.90;99.90;;;;;;5072767;28;20034;-68
2023/01/23 06:56:44;;;;;;;41.53;21.45;;;1.90;99.90;;;;;;5071655;28;20021;-72
2023/01/23 06:59:10;;;;;;;38.97;21.33;;;1.90;99.90;;;;;;5072715;28;20024;-68
2023/01/23 07:01:36;;;;;;;34.25;19.85;;;2.00;99.90;;;;;;5072389;28;20028;-68
2023/01/23 07:04:01;;;;;;;34.90;20.25;;;2.00;99.90;;;;;;5072126;28;20029;-68
2023/01/23 07:06:29;;;;;;;38.35;21.80;;;2.00;99.90;;;;;;5072620;28;20060;-68
2023/01/23 07:08:55;;;;;;;35.60;20.10;;;2.00;99.90;;;;;;5072337;28;20086;-69
2023/01/23 07:11:20;;;;;;;35.35;20.33;;;2.00;99.90;;;;;;5072557;28;20029;-68
2023/01/23 07:13:46;;;;;;;34.97;20.73;;;2.00;99.90;;;;;;5072076;28;20032;-72
2023/01/23 07:16:12;;;;;;;36.45;19.77;;;2.00;99.90;;;;;;5071269;28;20077;-68
2023/01/23 07:18:37;;;;;;;41.45;21.17;;;2.00;99.90;;;;;;5072589;28;20469;-68
2023/01/23 07:21:05;;;;;;;36.88;19.90;;;2.00;99.90;;;;;;5072064;28;20032;-68
2023/01/23 07:23:31;;;;;;;39.05;21.05;;;2.00;99.90;;;;;;5072327;28;20414;-68
2023/01/23 07:26:02;;;;;;;36.67;21.40;;;2.00;99.90;;;;;;5072065;28;20078;-68
2023/01/23 07:28:28;;;;;;;;;;;2.00;99.90;;;;;;5072872;28;20020;-68
2023/01/23 07:30:55;;;;;;;39.20;20.23;;;2.00;99.90;;;;;;5072064;28;19911;-68
2023/01/23 07:33:21;;;;;;;41.17;21.52;;;2.00;99.90;;;;;;5072391;28;20162;-68
2023/01/23 07:35:47;;;;;;;36.35;20.90;;;2.00;99.90;;;;;;5072319;28;20111;-68
2023/01/23 07:38:13;;;;;;;36.33;20.40;;;2.10;99.90;;;;;;5071900;28;20043;-68
2023/01/23 07:40:41;;;;;;;38.17;20.52;;;2.10;99.90;;;;;;5072501;28;20382;-68
2023/01/23 07:43:07;;;;;;;38.70;21.10;;;2.10;99.90;;;;;;5071740;28;20033;-68
2023/01/23 07:45:32;;;;;;;36.95;19.92;;;2.10;99.90;;;;;;5073395;28;20106;-68
2023/01/23 07:47:58;;;;;;;38.60;20.05;;;2.10;99.90;;;;;;5070577;28;20029;-68
2023/01/23 07:50:24;;;;;;;39.00;21.23;;;2.10;99.90;;;;;;5072141;28;20020;-68
2023/01/23 07:52:49;;;;;;;36.83;19.77;;;2.10;99.90;;;;;;5071530;28;20583;-69
2023/01/23 07:55:15;;;;;;;39.92;22.17;;;2.20;99.90;;;;;;5072062;28;20500;-68
2023/01/23 07:57:41;;;;;;;37.33;19.92;;;2.20;99.90;;;;;;5071740;28;20024;-68
2023/01/23 08:00:09;;;;;;;34.13;20.00;;;2.20;99.90;;;;;;5071663;28;20028;-68
2023/01/23 08:02:36;;;;;;;36.15;19.98;;;2.20;99.90;;;;;;5072182;28;20035;-68
2023/01/23 08:05:02;;;;;;;42.33;21.85;;;2.20;99.90;;;;;;5071811;28;20040;-68
2023/01/23 08:07:28;;;;;;;35.50;19.88;;;2.20;99.90;;;;;;5071985;28;20024;-68
2023/01/23 08:09:53;;;;;;;42.13;21.20;;;2.20;99.90;;;;;;5074909;28;20077;-68
2023/01/23 08:12:19;;;;;;;40.67;21.05;;;2.30;99.90;;;;;;5074484;28;20431;-69
2023/01/23 08:14:46;;;;;;;36.35;21.38;;;2.30;99.90;;;;;;5075618;28;20081;-68
2023/01/23 08:17:12;;;;;;;37.80;21.48;;;2.30;99.90;;;;;;5074012;28;20404;-68
2023/01/23 08:19:37;;;;;;;41.17;21.17;;;2.20;99.90;;;;;;5075608;28;20029;-68
2023/01/23 08:22:03;;;;;;;42.55;22.30;;;2.30;99.90;;;;;;5075022;28;20059;-68
2023/01/23 08:24:29;;;;;;;38.03;20.63;;;2.20;99.90;;;;;;5075428;28;20032;-68
2023/01/23 08:26:54;;;;;;;41.92;22.33;;;2.20;99.90;;;;;;5075011;28;20035;-69
2023/01/23 08:29:20;;;;;;;39.58;21.70;;;2.20;99.90;;;;;;5075373;28;20491;-68
2023/01/23 08:31:46;;;;;;;39.35;22.50;;;2.20;99.90;;;;;;5075262;28;20025;-68
2023/01/23 08:34:12;;;;;;;40.13;22.35;;;2.20;99.90;;;;;;5074889;28;20039;-68
2023/01/23 08:36:38;;;;;;;39.33;22.30;;;2.30;99.90;;;;;;5075454;28;20033;-67
2023/01/23 08:39:03;;;;;;;42.67;22.42;;;2.30;99.90;;;;;;5074556;28;20464;-68
2023/01/23 08:41:29;;;;;;;43.47;22.63;;;2.30;99.90;;;;;;5074828;28;20031;-67
2023/01/23 08:44:00;;;;;;;46.97;22.65;;;2.30;99.90;;;;;;5074506;28;20322;-68
2023/01/23 08:46:26;;;;;;;42.90;21.83;;;2.30;99.90;;;;;;5075297;28;20099;-68
2023/01/23 08:48:52;;;;;;;43.60;23.65;;;2.30;99.90;;;;;;5074994;28;20039;-68
2023/01/23 08:51:18;;;;;;;43.45;21.98;;;2.30;99.90;;;;;;5074587;28;20029;-68
2023/01/23 08:53:43;;;;;;;46.83;22.38;;;2.30;99.90;;;;;;5075016;28;20028;-68
2023/01/23 08:56:15;;;;;;;44.85;22.02;;;2.30;99.90;;;;;;5073305;28;20162;-69
2023/01/23 08:58:41;;;;;;;45.08;23.30;;;2.40;99.90;;;;;;5074939;28;20108;-67
2023/01/23 09:01:11;;;;;;;45.80;23.00;;;2.40;99.90;;;;;;5074405;28;20033;-68
2023/01/23 09:03:37;;;;;;;45.90;22.83;;;2.30;99.90;;;;;;5074963;28;20029;-68
2023/01/23 09:06:03;;;;;;;48.05;24.40;;;2.40;99.90;;;;;;5074350;28;20051;-68
2023/01/23 09:08:29;;;;;;;45.58;22.63;;;2.40;99.90;;;;;;5074700;28;20029;-68
2023/01/23 09:11:00;;;;;;;48.05;24.00;;;2.40;99.90;;;;;;5074374;28;20028;-73
2023/01/23 09:13:25;;;;;;;47.67;23.05;;;2.40;99.90;;;;;;5076525;28;20037;-68
2023/01/23 09:15:51;;;;;;;52.40;25.05;;;2.40;99.90;;;;;;5077049;28;20024;-67
2023/01/23 09:18:17;;;;;;;46.83;22.65;;;2.40;99.90;;;;;;5079506;28;20031;-69
2023/01/23 09:20:43;;;;;;;41.05;21.33;;;2.40;99.90;;;;;;5074613;28;20068;-67
2023/01/23 09:23:08;;;;;;;48.38;23.67;;;2.40;99.90;;;;;;5074071;28;20091;-67
2023/01/23 09:25:34;;;;;;;45.92;22.48;;;2.40;99.90;;;;;;5075909;28;20101;-68
2023/01/23 09:28:00;;;;;;;43.20;21.65;;;2.40;99.90;;;;;;5075958;28;20103;-67
2023/01/23 09:30:27;;;;;;;46.25;23.13;;;2.40;99.90;;;;;;5075734;28;20028;-67
2023/01/23 09:32:53;;;;;;;48.55;22.95;;;2.40;99.90;;;;;;5075229;28;20123;-67
2023/01/23 09:35:18;;;;;;;43.65;21.65;;;2.40;99.90;;;;;;5073715;28;20062;-67
2023/01/23 09:37:59;;;;;;;44.90;21.55;;;2.50;99.90;;;;;;5072921;28;20053;-68
2023/01/23 09:40:27;;;;;;;44.72;22.10;;;2.40;99.90;;;;;;5074047;28;20045;-68
2023/01/23 09:42:55;;;;;;;46.17;21.60;;;2.40;99.90;;;;;;5074013;28;20047;-69
2023/01/23 09:45:25;;;;;;;49.45;20.52;;;2.50;99.90;;;;;;5073675;28;20020;-67
2023/01/23 09:48:06;;;;;;;44.83;21.05;;;2.50;99.90;;;;;;5074003;28;20024;-68
2023/01/23 09:50:36;;;;;;;40.30;21.08;;;2.50;99.90;;;;;;5074159;28;20523;-67
2023/01/23 09:53:13;;;;;;;38.85;19.40;;;2.60;99.90;;;;;;5076044;28;20082;-68
2023/01/23 09:55:44;;;;;;;35.22;19.13;;;2.60;99.90;;;;;;5074054;28;20031;-67
2023/01/23 09:58:14;;;;;;;;;;;2.60;99.90;;;;;;5073905;28;20464;-68
2023/01/23 10:00:40;;;;;;;36.90;19.05;;;2.60;99.90;;;;;;5073580;28;19957;-68
2023/01/23 10:03:13;;;;;;;37.08;18.25;;;2.70;99.90;;;;;;5071771;28;20381;-67
2023/01/23 10:06:08;;;;;;;39.35;20.25;;;2.70;99.90;;;;;;5073598;28;20036;-67
2023/01/23 10:08:51;;;;;;;36.78;16.15;;;2.60;99.90;;;;;;5073604;28;20052;-69
2023/01/23 10:11:26;;;;;;;33.60;16.85;;;2.70;99.90;;;;;;5073092;28;20031;-68
2023/01/23 10:14:10;;;;;;;31.60;17.27;;;2.70;99.90;;;;;;5073109;28;20028;-67
2023/01/23 10:16:59;;;;;;;32.58;16.40;;;2.70;99.90;;;;;;5073377;28;20496;-66
2023/01/23 10:19:38;;;;;;;33.97;17.38;;;2.70;99.90;;;;;;5073174;28;20054;-67
2023/01/23 10:22:23;;;;;;;31.15;15.85;;;2.70;99.90;;;;;;5072911;28;20377;-67
2023/01/23 10:24:50;;;;;;;28.23;15.43;;;2.70;99.90;;;;;;5073605;28;20033;-66
2023/01/23 10:27:17;;;;;;;31.40;16.15;;;2.80;99.90;;;;;;5072830;28;20107;-67
2023/01/23 10:29:55;;;;;;;30.50;16.65;;;2.80;99.90;;;;;;5073215;28;20024;-67
2023/01/23 10:32:25;;;;;;;29.70;14.65;;;2.80;99.90;;;;;;5072781;28;20032;-69
2023/01/23 10:35:02;;;;;;;28.58;15.82;;;2.80;99.90;;;;;;5073163;28;20111;-68
2023/01/23 10:37:44;;;;;;;29.67;16.30;;;2.80;99.90;;;;;;5073214;28;20038;-69
2023/01/23 10:41:12;;;;;;;28.05;15.98;;;2.90;99.90;;;;;;5072255;28;20044;-69
2023/01/23 10:43:25;;;;;;;32.40;16.48;;;2.90;99.90;;;;;;5072045;28;20036;-69
2023/01/23 10:45:51;;;;;;;34.15;17.13;;;2.90;99.90;;;;;;5072751;28;20029;-68
2023/01/23 10:48:43;;;;;;;28.98;15.98;;;2.90;99.90;;;;;;5071011;28;20377;-68
2023/01/23 10:51:27;;;;;;;32.22;16.38;;;2.90;99.90;;;;;;5072119;28;20550;-68
2023/01/23 10:54:08;;;;;;;33.25;16.48;;;2.90;99.90;;;;;;5072823;28;20036;-68
2023/01/23 10:56:37;;;;;;;35.70;17.73;;;2.90;99.90;;;;;;5072839;28;20082;-68
2023/01/23 10:59:06;;;;;;;30.13;15.85;;;2.90;99.90;;;;;;5072291;28;20032;-69
2023/01/23 11:01:34;;;;;;;32.80;17.27;;;2.90;99.90;;;;;;5072742;28;20028;-66
2023/01/23 11:04:17;;;;;;;28.27;16.63;;;3.00;99.90;;;;;;5071333;28;20032;-68
2023/01/23 11:06:44;;;;;;;34.90;17.92;;;3.00;99.90;;;;;;5072418;28;20435;-67
2023/01/23 11:09:19;;;;;;;31.83;16.23;;;3.00;99.90;;;;;;5072116;28;20035;-68
2023/01/23 11:11:59;;;;;;;32.15;17.65;;;3.00;99.90;;;;;;5072645;28;20029;-67
2023/01/23 11:14:25;;;;;;;32.83;17.48;;;3.00;99.90;;;;;;5071938;28;20568;-67
2023/01/23 11:17:15;;;;;;;30.42;16.70;;;3.00;99.90;;;;;;5072743;28;20071;-67
2023/01/23 11:19:42;;;;;;;31.83;15.75;;;3.00;99.90;;;;;;5072737;28;20500;-67
2023/01/23 11:22:28;;;;;;;34.45;17.63;;;3.00;99.90;;;;;;5072062;28;20056;-67
2023/01/23 11:24:54;;;;;;;33.30;17.92;;;3.00;99.90;;;;;;5072631;28;20080;-67
2023/01/23 11:27:25;;;;;;;30.60;17.27;;;3.00;99.90;;;;;;5070948;28;20025;-68
2023/01/23 11:30:05;;;;;;;32.78;18.63;;;3.00;99.90;;;;;;5072595;28;20485;-67
2023/01/23 11:32:41;;;;;;;28.10;16.48;;;3.00;99.90;;;;;;5072586;28;20066;-68
2023/01/23 11:35:24;;;;;;;34.20;18.15;;;3.00;99.90;;;;;;5070742;28;20043;-68
2023/01/23 11:37:52;;;;;;;30.40;17.35;;;3.00;99.90;;;;;;5072506;28;20210;-67
2023/01/23 11:40:19;;;;;;;32.13;17.23;;;2.90;99.90;;;;;;5071495;28;20075;-67
2023/01/23 11:42:45;;;;;;;35.58;18.55;;;2.90;99.90;;;;;;5070880;28;20028;-69
2023/01/23 11:45:31;;;;;;;35.22;19.17;;;3.00;99.90;;;;;;5092350;28;20567;-67
2023/01/23 11:48:12;;;;;;;36.08;18.88;;;2.90;99.90;;;;;;5095983;28;20039;-68
2023/01/23 11:50:46;;;;;;;32.13;17.92;;;2.90;99.90;;;;;;5096306;28;20035;-68
2023/01/23 11:53:15;;;;;;;34.60;18.05;;;2.90;99.90;;;;;;5096072;28;20040;-68
2023/01/23 11:55:50;;;;;;;33.63;18.80;;;3.00;99.90;;;;;;5096343;28;20364;-68
2023/01/23 11:58:16;;;;;;;33.25;18.17;;;3.00;99.90;;;;;;5096096;28;20028;-68
2023/01/23 12:00:49;;;;;;;31.35;17.65;;;3.00;99.90;;;;;;5095992;28;20384;-68
2023/01/23 12:03:47;;;;;;;36.97;18.17;;;3.00;99.90;;;;;;5095799;28;20059;-68
2023/01/23 12:06:39;;;;;;;29.27;17.13;;;3.10;99.90;;;;;;5094936;28;20048;-68
2023/01/23 12:09:16;;;;;;;34.20;19.05;;;3.10;99.90;;;;;;5096086;28;20027;-68
2023/01/23 12:12:12;;;;;;;31.67;17.38;;;3.10;99.90;;;;;;5096014;28;20027;-68
2023/01/23 12:15:15;;;;;;;33.03;18.30;;;3.10;99.90;;;;;;5096189;28;20050;-68
2023/01/23 12:18:20;;;;;;;33.35;18.00;;;3.10;99.90;;;;;;5095965;28;20024;-68
2023/01/23 12:20:46;;;;;;;32.05;17.27;;;3.10;99.90;;;;;;5095740;28;20024;-69
2023/01/23 12:23:50;;;;;;;29.85;16.40;;;3.20;99.90;;;;;;5095267;28;20055;-68
2023/01/23 12:26:18;;;;;;;31.48;16.30;;;3.10;99.90;;;;;;5032678;28;20026;-68
2023/01/23 12:29:09;;;;;;;31.05;18.38;;;3.10;99.90;;;;;;5080533;28;20040;-68
2023/01/23 12:31:58;;;;;;;30.73;18.23;;;3.20;99.90;;;;;;5095793;28;20126;-68
2023/01/23 12:34:23;;;;;;;30.00;17.15;;;3.30;99.90;;;;;;5094949;28;20055;-68
2023/01/23 12:36:55;;;;;;;29.52;17.27;;;3.30;99.90;;;;;;5095362;28;20024;-68
2023/01/23 12:39:32;;;;;;;33.15;17.55;;;3.30;99.90;;;;;;5095151;28;20040;-68
2023/01/23 12:42:03;;;;;;;28.90;17.25;;;3.30;99.90;;;;;;5095357;28;20066;-68
2023/01/23 12:44:43;;;;;;;35.85;18.23;;;3.20;99.90;;;;;;5098887;28;20093;-68
2023/01/23 12:47:15;;;;;;;30.35;18.38;;;3.30;99.90;;;;;;5097467;28;20063;-68
2023/01/23 12:50:36;;;;;;;28.25;17.02;;;3.30;99.90;;;;;;5094091;28;20031;-68
2023/01/23 12:53:25;;;;;;;28.25;16.33;;;3.20;99.90;;;;;;5071282;28;20044;-68
2023/01/23 12:55:56;;;;;;;27.60;16.30;;;3.30;99.90;;;;;;5087580;28;20024;-68
2023/01/23 12:58:26;;;;;;;31.75;18.10;;;3.30;99.90;;;;;;5074376;28;20520;-68